Raleigh County Memorial Airport Beckley US
ICAO: KBKW
IATA: BKW
Category: Medium
Scheduled Services: Yes

Elevation: 2504 ft
TransAlt. 18000 ft.

Airport Communications:
CHARLESTON APP/DEP:118.95
ASOS:121.55
AWOS 3:124.65
ELKINS RDO:117.7
CTAF/UNICOM:123

KBKW Zoom In..

If you have problems with the map follow the link
https://www.worldairports.se/pages/airport.php?
ICAO=KBKW

Runways:

(A) RW 01 length 6750 ft width 150 ft
---- / hdg 13

(B) RW 10 length 5001 ft width 100 ft
---- / hdg 103

(C) RW 19 length 6750 ft width 150 ft
ILS 111.70 / hdg 193

(D) RW 28 length 5001 ft width 100 ft
---- / hdg 283

Location; KBKW
Day. 18 / Time. 01.51 Zulu
* Altimeter: 29.80
* Temperature: 07° c. 44.6°f.
* Wind from: 220° Speed 03 kn.
Dewpoint: 00° c.
Visibility: 7 Statute Miles.
Clouds: Overcast 1200 ft.
Conditions: Light Rain.

KBKW 180151Z AUTO 22003KT 7SM -RA OVC012 07/00 A2980 RMK AO2 SLP103 P0005 T00720000


Wind From 220°
Speed 03 kn.

 
 
jpsmedia.com for Web Design worldairports.se 2019   terms of use